Time;durP1;ratioP1;P1;durP2;ratioP2;P2;SDS_P1;SDS_P2;PMS_P1;PMS_P2;Temp;Humidity;BMP_temperature;BMP_pressure;BME280_temperature;BME280_humidity;BME280_pressure;Samples;Min_cycle;Max_cycle;Signal;HPM_P1;HPM_P2
2021/03/23 00:01:02;;;;;;;32.65;13.13;;;1.30;95.10;;;;;;5063992;28;20036;-71
2021/03/23 00:03:31;;;;;;;31.57;15.90;;;1.30;95.20;;;;;;5063216;28;20036;-72
2021/03/23 00:05:58;;;;;;;29.60;14.67;;;1.30;94.50;;;;;;5043411;28;20032;-70
2021/03/23 00:08:34;;;;;;;31.37;14.93;;;1.30;94.50;;;;;;5053490;28;20036;-71
2021/03/23 00:11:23;;;;;;;30.53;13.43;;;1.30;94.50;;;;;;5034352;28;20039;-72
2021/03/23 00:13:50;;;;;;;29.47;12.90;;;1.30;93.90;;;;;;5055359;28;20468;-72
2021/03/23 00:16:18;;;;;;;30.33;14.57;;;1.30;93.80;;;;;;5072100;28;20403;-73
2021/03/23 00:18:46;;;;;;;26.43;12.73;;;1.30;93.40;;;;;;5072002;28;20033;-72
2021/03/23 00:21:12;;;;;;;26.83;12.90;;;1.30;93.40;;;;;;5073022;28;20489;-72
2021/03/23 00:23:39;;;;;;;26.27;12.17;;;1.30;93.20;;;;;;5072027;28;20098;-71
2021/03/23 00:26:06;;;;;;;25.87;12.93;;;1.30;93.00;;;;;;5073285;28;20043;-71
2021/03/23 00:28:33;;;;;;;21.53;11.20;;;1.20;93.10;;;;;;5073187;28;20036;-73
2021/03/23 00:30:59;;;;;;;23.83;11.27;;;1.20;92.80;;;;;;5071850;28;20029;-71
2021/03/23 00:33:25;;;;;;;24.47;11.83;;;1.20;92.50;;;;;;5073335;28;20395;-72
2021/03/23 00:35:55;;;;;;;24.67;12.63;;;1.20;92.40;;;;;;5073162;28;20031;-72
2021/03/23 00:38:22;;;;;;;33.27;13.33;;;1.20;92.20;;;;;;5073172;28;20032;-72
2021/03/23 00:40:48;;;;;;;28.40;12.90;;;1.20;92.60;;;;;;5072978;28;20115;-71
2021/03/23 00:43:14;;;;;;;25.93;11.10;;;1.20;92.70;;;;;;5071799;28;20052;-71
2021/03/23 00:45:42;;;;;;;21.17;10.03;;;1.20;92.20;;;;;;5054777;28;20059;-71
2021/03/23 00:48:10;;;;;;;16.67;9.53;;;1.20;92.40;;;;;;5071332;28;20134;-71
2021/03/23 00:50:37;;;;;;;17.50;9.47;;;1.10;92.30;;;;;;5054961;28;20085;-71
2021/03/23 00:53:03;;;;;;;15.40;8.50;;;1.10;92.60;;;;;;5073003;28;20338;-71
2021/03/23 00:55:29;;;;;;;14.83;8.27;;;1.10;92.60;;;;;;5072983;28;20148;-71
2021/03/23 00:57:55;;;;;;;17.20;8.50;;;1.10;92.80;;;;;;5072952;28;20166;-72
2021/03/23 01:00:22;;;;;;;15.07;8.57;;;1.10;92.60;;;;;;5072904;28;20063;-70
2021/03/23 01:02:48;;;;;;;18.40;9.00;;;1.00;92.40;;;;;;5054888;28;20035;-73
2021/03/23 01:05:17;;;;;;;17.10;8.57;;;1.00;92.30;;;;;;5072868;28;20062;-71
2021/03/23 01:07:43;;;;;;;15.97;8.57;;;1.00;92.70;;;;;;5072762;28;20464;-70
2021/03/23 01:10:12;;;;;;;15.87;8.00;;;1.00;92.70;;;;;;5072819;28;20037;-72
2021/03/23 01:12:38;;;;;;;17.23;8.87;;;1.00;92.20;;;;;;5050929;28;20052;-72
2021/03/23 01:15:07;;;;;;;20.87;9.33;;;0.90;92.60;;;;;;5052830;28;20029;-70
2021/03/23 01:17:33;;;;;;;17.63;8.87;;;0.90;92.10;;;;;;5052789;28;20473;-71
2021/03/23 01:19:59;;;;;;;19.63;9.20;;;0.90;92.20;;;;;;5056315;28;20035;-72
2021/03/23 01:22:24;;;;;;;17.73;9.20;;;0.90;92.00;;;;;;5055397;28;20115;-73
2021/03/23 01:24:50;;;;;;;19.90;9.00;;;0.90;91.80;;;;;;5055415;28;20032;-70
2021/03/23 01:27:16;;;;;;;19.33;9.17;;;0.90;91.70;;;;;;5056310;28;20527;-71
2021/03/23 01:29:42;;;;;;;21.20;9.73;;;0.90;91.90;;;;;;5056876;28;20060;-72
2021/03/23 01:32:08;;;;;;;20.37;10.83;;;0.80;92.10;;;;;;5056243;28;20057;-70
2021/03/23 01:34:34;;;;;;;26.80;12.30;;;0.80;91.90;;;;;;5056484;28;20025;-71
2021/03/23 01:37:00;;;;;;;25.47;12.60;;;0.80;92.20;;;;;;5056440;28;20522;-71
2021/03/23 01:39:26;;;;;;;26.00;11.73;;;0.80;93.00;;;;;;5055083;28;20059;-70
2021/03/23 01:41:51;;;;;;;20.87;10.80;;;0.70;92.90;;;;;;5056296;28;20075;-70
2021/03/23 01:44:17;;;;;;;24.70;11.73;;;0.70;92.50;;;;;;5071394;28;20249;-71
2021/03/23 01:46:45;;;;;;;29.50;12.33;;;0.60;92.90;;;;;;5071539;28;20116;-71
2021/03/23 01:49:19;;;;;;;20.17;10.17;;;0.60;92.80;;;;;;5054528;28;20037;-71
2021/03/23 01:52:11;;;;;;;20.80;10.83;;;0.60;92.80;;;;;;5056157;28;20033;-70
2021/03/23 01:55:00;;;;;;;21.38;9.95;;;0.60;92.90;;;;;;5056187;28;20024;-72
2021/03/23 01:57:28;;;;;;;22.97;10.67;;;0.50;93.10;;;;;;5056146;28;20064;-71
2021/03/23 01:59:57;;;;;;;21.47;9.27;;;0.50;93.20;;;;;;5056006;28;20044;-71
2021/03/23 02:02:26;;;;;;;18.83;8.90;;;0.50;92.90;;;;;;5054589;28;20090;-71
2021/03/23 02:04:53;;;;;;;19.07;8.30;;;0.50;92.90;;;;;;5055929;28;20058;-71
2021/03/23 02:07:19;;;;;;;15.50;8.40;;;0.50;92.80;;;;;;5054531;28;20116;-69
2021/03/23 02:09:45;;;;;;;24.50;10.60;;;0.50;92.80;;;;;;5054237;28;20083;-68
2021/03/23 02:12:18;;;;;;;26.60;11.67;;;0.50;92.20;;;;;;5066451;28;20049;-71
2021/03/23 02:14:45;;;;;;;26.37;12.87;;;0.40;92.80;;;;;;5076002;28;20052;-71
2021/03/23 02:17:33;;;;;;;21.00;11.30;;;0.40;92.80;;;;;;5075725;28;20082;-70
2021/03/23 02:20:07;;;;;;;19.80;9.53;;;0.30;92.60;;;;;;5057630;28;20027;-70
2021/03/23 02:22:39;;;;;;;15.90;7.67;;;0.30;92.30;;;;;;5057644;28;20025;-69
2021/03/23 02:25:14;;;;;;;13.07;7.77;;;0.30;92.40;;;;;;5075613;28;20024;-71
2021/03/23 02:27:40;;;;;;;30.57;13.47;;;0.30;92.50;;;;;;5075441;28;20523;-73
2021/03/23 02:30:23;;;;;;;35.10;13.13;;;0.30;92.30;;;;;;5074275;28;20067;-70
2021/03/23 02:32:49;;;;;;;32.50;15.30;;;0.20;92.40;;;;;;5075392;28;20028;-69
2021/03/23 02:35:15;;;;;;;28.73;14.67;;;0.20;92.90;;;;;;5057451;28;20025;-71
2021/03/23 02:37:41;;;;;;;31.63;15.00;;;0.20;92.80;;;;;;5073962;28;20039;-69
2021/03/23 02:40:08;;;;;;;31.93;16.47;;;0.10;92.60;;;;;;5075255;28;20108;-72
2021/03/23 02:42:34;;;;;;;33.47;12.60;;;0.20;92.80;;;;;;5057244;28;20117;-71
2021/03/23 02:45:00;;;;;;;24.03;12.60;;;0.10;92.20;;;;;;5074886;28;20540;-70
2021/03/23 02:47:26;;;;;;;31.60;13.17;;;0.10;92.50;;;;;;5057085;28;20503;-72
2021/03/23 02:49:52;;;;;;;25.63;11.97;;;0.10;92.40;;;;;;5075055;28;20017;-70
2021/03/23 02:52:18;;;;;;;36.60;13.47;;;0.00;92.70;;;;;;5074991;28;20465;-71
2021/03/23 02:54:45;;;;;;;33.20;14.63;;;0.00;93.00;;;;;;5075322;28;20077;-71
2021/03/23 02:57:11;;;;;;;34.80;16.13;;;0.00;93.10;;;;;;5074919;28;20040;-71
2021/03/23 02:59:37;;;;;;;42.07;18.37;;;0.00;93.10;;;;;;5074585;28;20033;-71
2021/03/23 03:02:05;;;;;;;39.20;17.53;;;0.00;92.70;;;;;;5074726;28;20032;-67
2021/03/23 03:04:31;;;;;;;33.07;16.37;;;0.00;93.40;;;;;;5074863;28;20071;-70
2021/03/23 03:06:57;;;;;;;28.30;11.83;;;0.00;93.50;;;;;;5074757;28;20025;-71
2021/03/23 03:09:23;;;;;;;21.03;9.77;;;0.00;93.40;;;;;;5074738;28;20038;-71
2021/03/23 03:11:50;;;;;;;18.43;8.87;;;0.00;93.50;;;;;;5074243;28;20515;-69
2021/03/23 03:14:18;;;;;;;15.17;6.97;;;0.00;93.30;;;;;;5074574;28;20024;-71
2021/03/23 03:16:44;;;;;;;16.20;7.57;;;0.00;93.30;;;;;;5074555;28;20375;-71
2021/03/23 03:19:09;;;;;;;16.03;7.83;;;0.00;93.20;;;;;;5056477;28;20052;-70
2021/03/23 03:21:35;;;;;;;16.67;8.40;;;0.00;93.10;;;;;;5074155;28;20104;-69
2021/03/23 03:24:01;;;;;;;16.97;7.70;;;0.00;93.40;;;;;;5056355;28;20028;-69
2021/03/23 03:26:27;;;;;;;14.77;8.47;;;0.00;93.30;;;;;;5074317;28;20024;-70
2021/03/23 03:28:53;;;;;;;19.53;10.10;;;-0.10;93.50;;;;;;5074292;28;20038;-71
2021/03/23 03:31:25;;;;;;;21.90;11.57;;;-0.10;93.30;;;;;;5074506;28;20415;-71
2021/03/23 03:33:52;;;;;;;24.83;11.33;;;-0.10;93.20;;;;;;5072856;28;20024;-72
2021/03/23 03:36:20;;;;;;;22.37;11.63;;;-0.10;93.60;;;;;;5074090;28;20037;-72
2021/03/23 03:38:46;;;;;;;19.33;9.07;;;-0.20;93.80;;;;;;5073991;28;20106;-70
2021/03/23 03:41:13;;;;;;;20.60;9.87;;;-0.20;94.00;;;;;;5073458;28;20528;-69
2021/03/23 03:43:40;;;;;;;18.60;8.97;;;-0.20;94.20;;;;;;5074234;28;20055;-71
2021/03/23 03:46:05;;;;;;;23.93;9.93;;;-0.20;93.80;;;;;;5074172;28;20460;-69
2021/03/23 03:48:31;;;;;;;24.80;10.77;;;-0.10;93.90;;;;;;5055969;28;20032;-69
2021/03/23 03:50:57;;;;;;;23.10;9.37;;;-0.10;93.80;;;;;;5073818;28;20036;-70
2021/03/23 03:53:24;;;;;;;22.17;9.53;;;-0.10;93.50;;;;;;5073818;28;20055;-71
2021/03/23 03:55:51;;;;;;;22.67;9.20;;;-0.10;93.20;;;;;;5055812;28;20056;-72
2021/03/23 03:58:17;;;;;;;20.00;8.77;;;-0.10;93.70;;;;;;5073617;28;20028;-69
2021/03/23 04:00:44;;;;;;;21.63;9.53;;;-0.10;93.00;;;;;;5055696;28;20086;-71
2021/03/23 04:03:22;;;;;;;23.70;9.57;;;0.00;93.30;;;;;;5073590;28;20037;-70
2021/03/23 04:05:49;;;;;;;25.20;11.77;;;-0.10;93.50;;;;;;5055673;28;20115;-70
2021/03/23 04:08:19;;;;;;;23.67;10.37;;;-0.10;93.30;;;;;;5055566;28;20139;-69
2021/03/23 04:10:46;;;;;;;20.07;10.03;;;-0.10;93.20;;;;;;5055499;28;20471;-69
2021/03/23 04:13:12;;;;;;;16.60;8.90;;;-0.10;93.30;;;;;;5072987;28;20050;-70
2021/03/23 04:15:41;;;;;;;22.63;11.30;;;-0.20;93.80;;;;;;5073494;28;20079;-71
2021/03/23 04:18:09;;;;;;;21.57;10.40;;;-0.30;93.80;;;;;;5073330;28;20064;-71
2021/03/23 04:20:36;;;;;;;22.33;10.23;;;-0.30;94.10;;;;;;5072030;28;20477;-72
2021/03/23 04:23:03;;;;;;;21.60;11.37;;;-0.30;94.10;;;;;;5071967;28;20052;-71
2021/03/23 04:25:31;;;;;;;26.57;11.40;;;-0.40;94.40;;;;;;5071671;28;20029;-72
2021/03/23 04:27:58;;;;;;;24.97;11.80;;;-0.40;94.60;;;;;;5073240;28;20028;-72
2021/03/23 04:30:25;;;;;;;26.53;11.03;;;-0.50;94.90;;;;;;5055486;28;20381;-71
2021/03/23 04:32:54;;;;;;;19.80;8.77;;;-0.40;94.60;;;;;;5072695;28;20054;-71
2021/03/23 04:35:43;;;;;;;15.50;8.37;;;-0.30;94.40;;;;;;5055193;28;20028;-70
2021/03/23 04:38:13;;;;;;;20.67;8.83;;;-0.30;94.40;;;;;;5072803;28;20427;-71
2021/03/23 04:40:39;;;;;;;14.57;8.20;;;-0.30;94.00;;;;;;5055064;28;20040;-71
2021/03/23 04:43:06;;;;;;;18.97;8.90;;;-0.30;94.60;;;;;;5055017;28;20029;-69
2021/03/23 04:45:32;;;;;;;16.83;8.00;;;-0.30;94.10;;;;;;5055078;28;20021;-72
2021/03/23 04:47:59;;;;;;;19.53;8.43;;;-0.30;93.80;;;;;;5072764;28;20468;-71
2021/03/23 04:50:24;;;;;;;18.07;8.60;;;-0.20;93.80;;;;;;5073020;28;20025;-71
2021/03/23 04:52:50;;;;;;;17.37;8.57;;;-0.20;93.40;;;;;;5054281;28;20377;-69
2021/03/23 04:55:17;;;;;;;25.43;8.17;;;-0.20;93.60;;;;;;5055023;28;20032;-70
2021/03/23 04:57:43;;;;;;;13.17;8.17;;;-0.10;93.80;;;;;;5072583;28;20440;-70
2021/03/23 05:00:12;;;;;;;16.53;7.90;;;-0.10;93.00;;;;;;5072971;28;20064;-69
2021/03/23 05:02:38;;;;;;;15.33;7.40;;;0.00;93.60;;;;;;5054933;28;20035;-70
2021/03/23 05:05:06;;;;;;;15.50;8.50;;;0.00;93.20;;;;;;5072909;28;20068;-71
2021/03/23 05:07:31;;;;;;;14.93;7.20;;;0.00;92.90;;;;;;5054832;28;20532;-69
2021/03/23 05:09:57;;;;;;;16.40;7.20;;;0.00;93.00;;;;;;5073170;28;20108;-70
2021/03/23 05:12:23;;;;;;;14.53;7.93;;;0.00;93.40;;;;;;5054472;28;20052;-71
2021/03/23 05:14:49;;;;;;;16.80;8.40;;;0.10;93.10;;;;;;5054761;28;20025;-70
2021/03/23 05:17:15;;;;;;;30.87;13.97;;;0.10;92.80;;;;;;5054780;28;20025;-70
2021/03/23 05:19:41;;;;;;;43.20;21.70;;;0.10;93.00;;;;;;5072992;28;20039;-70
2021/03/23 05:22:08;;;;;;;39.00;21.10;;;0.20;93.00;;;;;;5071397;28;20025;-70
2021/03/23 05:24:33;;;;;;;44.30;23.37;;;0.20;93.00;;;;;;5071784;28;20377;-70
2021/03/23 05:26:59;;;;;;;53.70;26.60;;;0.20;93.00;;;;;;5072911;28;20033;-69
2021/03/23 05:29:25;;;;;;;24.70;12.80;;;0.30;93.10;;;;;;5072641;28;20055;-70
2021/03/23 05:31:51;;;;;;;28.70;13.17;;;0.30;92.50;;;;;;5072880;28;20048;-71
2021/03/23 05:34:17;;;;;;;34.87;13.73;;;0.40;92.20;;;;;;5072651;28;20028;-69
2021/03/23 05:36:44;;;;;;;29.97;11.73;;;0.40;92.30;;;;;;5071203;28;20028;-69
2021/03/23 05:39:12;;;;;;;28.83;10.60;;;0.40;92.10;;;;;;5072456;28;20116;-71
2021/03/23 05:42:03;;;;;;;35.40;12.40;;;0.40;91.80;;;;;;5071197;28;20039;-70
2021/03/23 05:45:04;;;;;;;32.03;11.33;;;0.40;92.00;;;;;;5072201;28;20028;-70
2021/03/23 05:47:34;;;;;;;33.95;12.73;;;0.50;91.80;;;;;;5072525;28;20047;-70
2021/03/23 05:50:11;;;;;;;32.00;11.50;;;0.60;92.20;;;;;;5054466;28;20369;-71
2021/03/23 05:52:57;;;;;;;40.80;14.90;;;0.60;92.20;;;;;;5054462;28;20025;-68
2021/03/23 05:55:40;;;;;;;34.10;13.83;;;0.60;92.20;;;;;;5071012;28;20032;-69
2021/03/23 05:58:13;;;;;;;39.13;15.83;;;0.70;91.60;;;;;;5072423;28;20025;-71
2021/03/23 06:00:39;;;;;;;40.93;15.13;;;0.80;91.20;;;;;;5072386;28;20043;-70
2021/03/23 06:03:21;;;;;;;31.20;13.77;;;0.80;91.60;;;;;;5072329;28;20033;-70
2021/03/23 06:05:49;;;;;;;;;;;0.90;91.90;;;;;;5066146;28;20116;-70
2021/03/23 06:08:26;;;;;;;27.73;11.37;;;0.90;91.60;;;;;;5067160;28;19958;-71
2021/03/23 06:11:17;;;;;;;78.53;37.83;;;1.00;92.00;;;;;;5074454;28;20036;-71
2021/03/23 06:13:49;;;;;;;32.33;15.23;;;1.00;91.90;;;;;;5075462;28;20393;-73
2021/03/23 06:16:38;;;;;;;28.10;10.93;;;1.10;91.90;;;;;;5074365;28;20123;-71
2021/03/23 06:19:41;;;;;;;22.50;10.73;;;1.20;92.40;;;;;;5075350;28;20081;-72
2021/03/23 06:22:10;;;;;;;18.63;9.57;;;1.20;92.30;;;;;;5057561;28;20024;-73
2021/03/23 06:25:13;;;;;;;22.20;10.90;;;1.30;91.70;;;;;;5057170;28;20025;-71
2021/03/23 06:27:55;;;;;;;19.97;10.67;;;1.40;91.70;;;;;;5075453;28;20041;-70
2021/03/23 06:31:02;;;;;;;24.63;10.57;;;1.50;92.00;;;;;;5075434;28;20090;-71
2021/03/23 06:33:30;;;;;;;26.03;11.53;;;1.60;91.00;;;;;;5020012;28;20044;-71
2021/03/23 06:36:03;;;;;;;30.57;13.40;;;1.70;90.20;;;;;;5074953;28;20017;-71
2021/03/23 06:38:37;;;;;;;51.43;25.70;;;1.80;90.10;;;;;;5073571;28;20486;-74
2021/03/23 06:41:31;;;;;;;40.73;21.10;;;1.90;89.80;;;;;;5075204;28;20074;-73
2021/03/23 06:44:24;;;;;;;64.63;30.93;;;2.00;89.90;;;;;;5075115;28;20024;-73
2021/03/23 06:46:52;;;;;;;44.03;21.57;;;2.10;90.10;;;;;;5075104;28;20032;-73
2021/03/23 06:49:36;;;;;;;33.30;17.10;;;2.10;87.30;;;;;;5075027;28;20118;-72
2021/03/23 06:52:19;;;;;;;34.00;19.97;;;2.20;86.60;;;;;;5075110;28;20024;-72
2021/03/23 06:55:07;;;;;;;66.23;29.90;;;2.30;85.40;;;;;;5074968;28;20029;-73
2021/03/23 06:57:37;;;;;;;88.83;38.47;;;2.40;85.50;;;;;;5056594;28;20119;-73
2021/03/23 07:00:15;;;;;;;190.53;79.77;;;2.50;86.90;;;;;;5056865;28;20532;-72
2021/03/23 07:03:11;;;;;;;31.43;15.27;;;2.60;84.80;;;;;;5074631;28;20456;-72
2021/03/23 07:05:39;;;;;;;24.10;12.40;;;2.70;81.30;;;;;;5073494;28;20104;-71
2021/03/23 07:08:08;;;;;;;26.70;16.57;;;2.70;82.70;;;;;;5074151;28;20385;-71
2021/03/23 07:11:05;;;;;;;25.47;12.87;;;2.80;83.90;;;;;;5074631;28;20105;-71
2021/03/23 07:13:34;;;;;;;22.53;14.23;;;2.90;82.70;;;;;;5071585;28;20053;-71
2021/03/23 07:16:12;;;;;;;28.70;15.57;;;3.00;84.00;;;;;;5073922;28;20484;-72
2021/03/23 07:19:05;;;;;;;48.57;22.40;;;3.20;85.20;;;;;;5074223;28;20035;-71
2021/03/23 07:21:37;;;;;;;65.43;31.30;;;3.30;83.60;;;;;;5056408;28;20056;-71
2021/03/23 07:24:10;;;;;;;55.70;28.40;;;3.50;84.80;;;;;;5074006;28;20026;-71
2021/03/23 07:26:38;;;;;;;74.57;37.17;;;3.60;84.30;;;;;;5074344;28;20032;-72
2021/03/23 07:29:10;;;;;;;87.53;41.97;;;3.70;85.00;;;;;;5070819;28;20028;-71
2021/03/23 07:31:45;;;;;;;62.72;30.83;;;3.90;83.80;;;;;;5041922;28;20056;-71
2021/03/23 07:34:40;;;;;;;17.48;9.95;;;3.90;84.00;;;;;;5036083;28;20037;-71
2021/03/23 07:37:28;;;;;;;34.25;15.30;;;4.10;81.80;;;;;;5042893;28;20048;-74
2021/03/23 07:40:04;;;;;;;17.80;9.20;;;4.20;85.60;;;;;;5054118;28;20453;-72
2021/03/23 07:43:12;;;;;;;19.15;9.48;;;4.40;81.80;;;;;;5036201;28;20021;-73
2021/03/23 07:45:54;;;;;;;14.45;9.48;;;4.60;85.80;;;;;;5053866;28;20028;-73
2021/03/23 07:48:46;;;;;;;19.58;12.00;;;4.70;82.70;;;;;;5053539;28;20061;-74
2021/03/23 07:51:50;;;;;;;24.55;11.25;;;4.90;84.50;;;;;;5053912;28;20472;-73
2021/03/23 07:54:21;;;;;;;10.45;6.28;;;5.10;85.40;;;;;;4972540;28;20035;-72
2021/03/23 07:56:47;;;;;;;13.38;7.57;;;5.50;85.20;;;;;;4972257;28;20035;-72
2021/03/23 07:59:47;;;;;;;34.65;17.25;;;5.70;82.80;;;;;;4972397;28;20431;-72
2021/03/23 08:02:45;;;;;;;98.07;44.70;;;5.90;79.60;;;;;;4969548;28;20030;-70
2021/03/23 08:05:38;;;;;;;109.82;48.25;;;6.00;78.90;;;;;;4972237;28;20503;-72
2021/03/23 08:08:31;;;;;;;49.22;24.92;;;6.10;79.40;;;;;;4985777;28;20046;-68
2021/03/23 08:11:08;;;;;;;112.82;52.45;;;6.30;74.50;;;;;;4991493;28;20034;-72
2021/03/23 08:14:05;;;;;;;91.45;42.00;;;6.30;73.40;;;;;;4991729;28;20037;-70
2021/03/23 08:16:45;;;;;;;19.70;10.57;;;6.60;75.70;;;;;;4991530;28;20557;-69
2021/03/23 08:19:41;;;;;;;50.63;25.85;;;6.80;73.40;;;;;;4991631;28;20074;-70
2021/03/23 08:22:40;;;;;;;37.40;19.85;;;6.90;75.90;;;;;;4991669;28;20049;-70
2021/03/23 08:25:17;;;;;;;42.55;22.48;;;7.20;74.60;;;;;;4991401;28;20158;-70
2021/03/23 08:28:15;;;;;;;79.55;35.45;;;7.50;72.80;;;;;;4990605;28;20030;-74
2021/03/23 08:31:06;;;;;;;64.20;32.08;;;7.60;68.40;;;;;;5026229;28;20496;-73
2021/03/23 08:33:59;;;;;;;31.17;16.45;;;7.70;68.80;;;;;;5053186;28;20025;-71
2021/03/23 08:36:31;;;;;;;21.27;10.82;;;8.00;67.40;;;;;;5053104;28;20025;-74
2021/03/23 08:39:06;;;;;;;14.80;8.18;;;8.10;69.90;;;;;;5034943;28;20187;-73
2021/03/23 08:41:52;;;;;;;21.33;12.85;;;8.20;65.90;;;;;;5052807;28;20029;-74
2021/03/23 08:44:40;;;;;;;18.38;8.05;;;8.40;65.80;;;;;;5065508;28;20036;-70
2021/03/23 08:47:21;;;;;;;18.55;5.57;;;8.70;77.20;;;;;;5072197;28;20025;-69
2021/03/23 08:49:48;;;;;;;12.77;5.70;;;8.90;68.30;;;;;;5049927;28;20036;-71
2021/03/23 08:52:38;;;;;;;13.75;6.53;;;9.20;71.40;;;;;;5062718;28;20491;-72
2021/03/23 08:55:07;;;;;;;15.52;8.90;;;9.10;64.30;;;;;;5071406;28;20056;-68
2021/03/23 08:57:58;;;;;;;45.47;23.38;;;9.30;61.50;;;;;;5072717;28;20194;-73
2021/03/23 09:00:40;;;;;;;15.82;6.07;;;9.20;63.60;;;;;;5054893;28;20032;-69
2021/03/23 09:03:09;;;;;;;12.77;6.03;;;9.70;69.00;;;;;;5072501;28;20035;-71
2021/03/23 09:05:50;;;;;;;9.55;5.57;;;10.00;63.90;;;;;;5070818;28;20021;-71
2021/03/23 09:08:28;;;;;;;19.27;8.30;;;10.10;68.40;;;;;;5051578;28;20060;-70
2021/03/23 09:10:57;;;;;;;60.28;28.75;;;10.30;62.20;;;;;;5052731;28;20062;-72
2021/03/23 09:13:44;;;;;;;23.10;13.07;;;10.30;63.00;;;;;;5052520;28;20029;-73
2021/03/23 09:16:13;;;;;;;39.05;19.60;;;10.20;63.00;;;;;;5052496;28;20025;-70
2021/03/23 09:19:01;;;;;;;106.10;48.90;;;10.40;63.80;;;;;;5052603;28;20059;-73
2021/03/23 09:21:55;;;;;;;87.05;42.88;;;9.70;56.70;;;;;;5052673;28;20017;-72
2021/03/23 09:24:29;;;;;;;56.30;31.20;;;9.50;56.30;;;;;;5058519;28;20115;-71
2021/03/23 09:26:55;;;;;;;34.10;22.42;;;8.90;57.50;;;;;;5057902;28;20032;-71
2021/03/23 09:29:49;;;;;;;96.85;51.85;;;8.80;59.70;;;;;;5072631;28;20029;-73
2021/03/23 09:32:22;;;;;;;21.35;12.75;;;8.30;58.60;;;;;;5072511;28;20391;-73
2021/03/23 09:35:20;;;;;;;41.35;20.63;;;8.20;60.10;;;;;;5054564;28;20028;-73
2021/03/23 09:37:56;;;;;;;11.93;6.93;;;8.70;61.40;;;;;;5054594;28;20113;-70
2021/03/23 09:40:24;;;;;;;8.93;5.82;;;9.20;63.00;;;;;;5051742;28;20024;-73
2021/03/23 09:43:19;;;;;;;11.77;6.40;;;9.10;58.70;;;;;;5049335;28;20037;-74
2021/03/23 09:45:51;;;;;;;11.95;7.70;;;9.10;60.50;;;;;;5033085;28;20036;-70
2021/03/23 09:48:16;;;;;;;13.30;7.10;;;9.60;58.00;;;;;;5074295;28;20035;-74
2021/03/23 09:50:58;;;;;;;9.15;6.28;;;10.20;59.20;;;;;;5075238;28;20033;-72
2021/03/23 09:53:36;;;;;;;13.50;6.88;;;10.90;60.60;;;;;;5058003;28;20410;-71
2021/03/23 09:56:35;;;;;;;13.25;8.15;;;10.70;59.20;;;;;;5072664;28;20428;-72
2021/03/23 09:59:05;;;;;;;14.18;8.10;;;10.50;50.60;;;;;;5048813;28;20047;-72
2021/03/23 10:01:33;;;;;;;19.88;9.68;;;10.90;53.80;;;;;;5065971;28;20053;-76
2021/03/23 10:03:59;;;;;;;12.35;7.85;;;11.00;55.10;;;;;;5061434;28;20385;-71
2021/03/23 10:06:27;;;;;;;13.18;7.15;;;11.60;58.30;;;;;;5075461;28;20059;-70
2021/03/23 10:09:01;;;;;;;13.80;6.32;;;12.10;56.10;;;;;;5074733;28;20028;-71
2021/03/23 10:11:42;;;;;;;13.48;7.93;;;12.10;55.00;;;;;;5057007;28;20106;-70
2021/03/23 10:14:10;;;;;;;17.50;9.57;;;11.40;55.80;;;;;;5056649;28;20035;-70
2021/03/23 10:16:38;;;;;;;13.65;8.35;;;;;;;;;;5075334;28;20020;-70
2021/03/23 10:19:19;;;;;;;12.00;7.05;;;10.00;52.00;;;;;;5075632;28;20033;-73
2021/03/23 10:21:49;;;;;;;11.40;6.82;;;9.70;54.00;;;;;;5056914;28;20101;-67
2021/03/23 10:24:19;;;;;;;11.32;6.28;;;10.30;52.70;;;;;;5070732;28;20052;-68
2021/03/23 10:26:50;;;;;;;10.77;6.07;;;11.10;53.70;;;;;;5074505;28;20036;-74
2021/03/23 10:29:20;;;;;;;8.40;5.85;;;12.20;57.10;;;;;;5074964;28;20029;-70
2021/03/23 10:31:51;;;;;;;8.02;5.53;;;13.50;51.90;;;;;;5041684;28;20071;-66
2021/03/23 10:34:25;;;;;;;8.55;5.82;;;14.40;51.00;;;;;;5037062;28;20025;-71
2021/03/23 10:36:52;;;;;;;8.43;6.32;;;13.40;48.10;;;;;;5037251;28;20025;-70
2021/03/23 10:39:44;;;;;;;9.38;5.80;;;12.60;46.00;;;;;;5055056;28;20513;-73
2021/03/23 10:42:26;;;;;;;11.00;6.00;;;13.10;49.70;;;;;;5033827;28;20041;-73
2021/03/23 10:45:08;;;;;;;;;;;12.30;46.70;;;;;;5055341;28;20548;-72
2021/03/23 10:47:38;;;;;;;21.65;12.93;;;11.90;53.50;;;;;;5057167;28;19908;-75
2021/03/23 10:50:21;;;;;;;18.70;11.43;;;11.70;50.80;;;;;;5074599;28;20025;-73
2021/03/23 10:52:48;;;;;;;15.27;8.30;;;11.60;52.00;;;;;;5073679;28;20020;-73
2021/03/23 10:55:20;;;;;;;11.55;7.40;;;12.70;50.40;;;;;;5056468;28;20078;-73
2021/03/23 10:57:46;;;;;;;16.15;7.35;;;14.80;47.70;;;;;;5060545;28;20025;-72
2021/03/23 11:00:18;;;;;;;10.77;6.35;;;15.50;44.10;;;;;;5054565;28;20552;-73
2021/03/23 11:02:44;;;;;;;8.38;5.53;;;16.50;41.60;;;;;;5036709;28;20071;-72
2021/03/23 11:05:16;;;;;;;7.70;5.30;;;17.40;38.00;;;;;;5070394;28;20060;-72
2021/03/23 11:07:50;;;;;;;9.85;5.60;;;18.30;38.70;;;;;;5074667;28;20028;-71
2021/03/23 11:10:20;;;;;;;12.48;7.45;;;17.60;36.60;;;;;;5072228;28;20044;-71
2021/03/23 11:12:46;;;;;;;7.68;4.70;;;15.00;40.70;;;;;;5046084;28;20132;-71
2021/03/23 11:15:13;;;;;;;9.73;5.65;;;14.50;40.90;;;;;;5054247;28;20124;-69
2021/03/23 11:17:46;;;;;;;6.32;3.97;;;13.50;44.70;;;;;;5054373;28;20068;-72
2021/03/23 11:20:21;;;;;;;5.95;4.50;;;16.10;48.20;;;;;;5052728;28;20406;-75
2021/03/23 11:22:49;;;;;;;10.07;5.18;;;18.70;33.70;;;;;;5054127;28;20425;-72
2021/03/23 11:25:23;;;;;;;6.55;4.20;;;;;;;;;;5052985;28;20094;-71
2021/03/23 11:27:49;;;;;;;6.32;4.20;;;;;;;;;;5054217;28;20020;-75
2021/03/23 11:30:15;;;;;;;6.28;4.60;;;20.10;31.70;;;;;;5046591;28;20497;-73
2021/03/23 11:32:44;;;;;;;7.38;3.92;;;18.40;33.80;;;;;;5032869;28;20079;-72
2021/03/23 11:35:11;;;;;;;9.13;5.18;;;16.90;36.30;;;;;;5032787;28;20031;-71
2021/03/23 11:37:37;;;;;;;11.60;5.60;;;15.90;40.20;;;;;;5032300;28;20029;-70
2021/03/23 11:40:04;;;;;;;25.42;14.27;;;15.50;42.10;;;;;;5032744;28;20083;-69
2021/03/23 11:42:34;;;;;;;12.32;7.25;;;17.80;38.20;;;;;;5032415;28;20032;-72
2021/03/23 11:45:20;;;;;;;8.70;5.90;;;22.30;31.20;;;;;;5034020;28;20030;-72
2021/03/23 11:47:54;;;;;;;13.45;5.55;;;19.40;29.80;;;;;;5038635;28;20388;-71
2021/03/23 11:50:24;;;;;;;10.55;7.32;;;17.40;34.40;;;;;;5052126;28;20025;-75
2021/03/23 11:52:53;;;;;;;12.25;6.70;;;15.70;37.00;;;;;;5052486;28;20075;-72
2021/03/23 11:55:23;;;;;;;11.63;6.55;;;15.80;40.60;;;;;;5053803;28;20033;-73
2021/03/23 11:57:50;;;;;;;5.30;4.27;;;20.00;31.80;;;;;;5044195;28;20033;-73
2021/03/23 12:00:17;;;;;;;10.43;5.53;;;20.50;32.50;;;;;;5053415;28;20025;-70
2021/03/23 12:02:43;;;;;;;11.77;6.03;;;20.10;30.00;;;;;;5053192;28;20508;-71
2021/03/23 12:05:11;;;;;;;7.80;5.32;;;19.60;30.00;;;;;;5052713;28;20064;-74
2021/03/23 12:08:23;;;;;;;7.90;4.90;;;20.10;31.10;;;;;;5053325;28;20021;-71
2021/03/23 12:10:58;;;;;;;5.47;4.43;;;22.50;29.30;;;;;;5048276;28;20029;-74
2021/03/23 12:13:40;;;;;;;7.10;4.30;;;23.70;29.30;;;;;;5049007;28;20053;-71
2021/03/23 12:16:15;;;;;;;;;;;24.60;26.60;;;;;;5052584;28;20135;-74
2021/03/23 12:18:52;;;;;;;9.63;3.50;;;25.00;27.00;;;;;;5053330;28;19920;-73
2021/03/23 12:21:20;;;;;;;15.07;4.70;;;21.50;26.30;;;;;;5053374;28;20021;-71
2021/03/23 12:23:46;;;;;;;10.23;3.90;;;24.60;27.70;;;;;;5053280;28;20080;-70
2021/03/23 12:26:13;;;;;;;6.75;3.80;;;24.60;28.40;;;;;;5053229;28;20025;-69
2021/03/23 12:28:41;;;;;;;5.53;3.60;;;25.20;26.50;;;;;;5053271;28;20480;-71
2021/03/23 12:31:07;;;;;;;9.05;4.18;;;26.60;26.20;;;;;;5051886;28;20102;-72
2021/03/23 12:33:33;;;;;;;5.20;3.65;;;27.00;27.40;;;;;;5052953;28;20025;-73
2021/03/23 12:35:59;;;;;;;4.13;3.08;;;28.10;24.70;;;;;;5052498;28;20090;-68
2021/03/23 12:38:25;;;;;;;4.95;3.72;;;27.60;24.80;;;;;;5052537;28;20025;-70
2021/03/23 12:40:50;;;;;;;6.40;3.40;;;27.40;24.30;;;;;;5052478;28;20477;-69
2021/03/23 12:43:24;;;;;;;5.63;4.60;;;28.40;23.90;;;;;;5052471;28;20104;-69
2021/03/23 12:45:51;;;;;;;5.53;3.70;;;28.40;23.70;;;;;;5051840;28;20029;-69
2021/03/23 12:48:17;;;;;;;4.20;3.55;;;29.40;24.30;;;;;;5045087;28;20028;-69
2021/03/23 12:50:44;;;;;;;6.50;5.10;;;27.50;24.60;;;;;;5034400;28;20450;-69
2021/03/23 12:53:13;;;;;;;8.30;6.22;;;;;;;;;;5036708;28;20037;-69
2021/03/23 12:58:45;;;;;;;5.82;4.07;;;24.90;23.60;;;;;;5039026;28;20040;-70
2021/03/23 13:01:11;;;;;;;7.88;4.55;;;24.50;26.50;;;;;;5036974;28;20492;-72
2021/03/23 13:03:37;;;;;;;6.00;3.88;;;24.20;26.60;;;;;;5046742;28;20434;-69
2021/03/23 13:06:03;;;;;;;7.00;4.20;;;24.50;28.20;;;;;;5032741;28;20025;-68
2021/03/23 13:08:36;;;;;;;7.10;3.35;;;22.20;27.70;;;;;;5031392;28;20033;-68
2021/03/23 13:11:16;;;;;;;6.22;3.95;;;20.30;30.00;;;;;;5051258;28;20487;-69
2021/03/23 13:14:05;;;;;;;13.02;5.40;;;18.30;31.60;;;;;;5065803;28;20403;-70